createdAt,value
2019-02-14T00:00:59.710Z,2.90
2019-02-14T00:01:59.883Z,2.85
2019-02-14T00:03:00.054Z,2.92
2019-02-14T00:04:00.232Z,2.80
2019-02-14T00:05:00.396Z,2.74
2019-02-14T00:06:00.564Z,2.77
2019-02-14T00:07:00.738Z,2.82
2019-02-14T00:08:00.910Z,2.90
2019-02-14T00:09:01.078Z,2.90
2019-02-14T00:10:01.251Z,2.86
2019-02-14T00:11:01.423Z,3.03
2019-02-14T00:12:01.598Z,3.03
2019-02-14T00:13:01.760Z,2.95
2019-02-14T00:14:01.938Z,3.01
2019-02-14T00:15:02.107Z,3.00
2019-02-14T00:16:02.284Z,3.00
2019-02-14T00:17:02.436Z,3.04
2019-02-14T00:18:02.617Z,2.95
2019-02-14T00:19:02.783Z,2.95
2019-02-14T00:20:02.964Z,2.97
2019-02-14T00:21:03.123Z,2.86
2019-02-14T00:22:03.298Z,2.92
2019-02-14T00:23:03.471Z,2.82
2019-02-14T00:24:03.652Z,2.83
2019-02-14T00:25:03.809Z,2.79
2019-02-14T00:26:03.981Z,2.85
2019-02-14T00:27:04.141Z,2.90
2019-02-14T00:28:04.314Z,2.85
2019-02-14T00:29:04.484Z,2.89
2019-02-14T00:30:04.657Z,2.85
2019-02-14T00:31:04.852Z,2.93
2019-02-14T00:32:04.999Z,2.95
2019-02-14T00:33:05.180Z,3.05
2019-02-14T00:34:05.341Z,3.07
2019-02-14T00:35:05.510Z,2.98
2019-02-14T00:36:05.680Z,3.18
2019-02-14T00:37:05.852Z,3.14
2019-02-14T00:38:06.025Z,2.98
2019-02-14T00:39:06.194Z,3.21
2019-02-14T00:40:06.355Z,3.16
2019-02-14T00:41:06.528Z,2.98
2019-02-14T00:42:06.699Z,3.03
2019-02-14T00:43:06.864Z,3.07
2019-02-14T00:44:07.036Z,3.01
2019-02-14T00:45:07.206Z,2.95
2019-02-14T00:46:07.385Z,3.00
2019-02-14T00:47:07.548Z,2.54
2019-02-14T00:48:07.715Z,2.60
2019-02-14T00:49:07.892Z,2.47
2019-02-14T00:50:08.060Z,2.56
2019-02-14T00:51:08.225Z,2.42
2019-02-14T00:52:08.409Z,2.47
2019-02-14T00:53:08.563Z,2.56
2019-02-14T00:54:08.727Z,2.60
2019-02-14T00:55:08.905Z,2.50
2019-02-14T00:56:09.067Z,2.53
2019-02-14T00:57:09.239Z,2.49
2019-02-14T00:58:09.410Z,2.56
2019-02-14T00:59:09.576Z,2.60
2019-02-14T01:00:09.748Z,2.64
2019-02-14T01:01:09.920Z,2.51
2019-02-14T01:02:10.090Z,2.65
2019-02-14T01:03:10.259Z,2.56
2019-02-14T01:04:10.438Z,2.57
2019-02-14T01:05:10.607Z,2.64
2019-02-14T01:06:10.766Z,2.65
2019-02-14T01:07:10.944Z,2.68
2019-02-14T01:08:11.106Z,2.75
2019-02-14T01:09:11.289Z,2.65
2019-02-14T01:10:11.437Z,2.68
2019-02-14T01:11:11.610Z,2.77
2019-02-14T01:12:11.771Z,2.74
2019-02-14T01:13:11.942Z,2.71
2019-02-14T01:14:12.115Z,2.65
2019-02-14T01:15:12.282Z,2.77
2019-02-14T01:16:12.452Z,2.71
2019-02-14T01:17:12.619Z,2.68
2019-02-14T01:18:12.801Z,2.72
2019-02-14T01:19:12.967Z,2.74
2019-02-14T01:20:13.138Z,2.71
2019-02-14T01:21:13.308Z,2.71
2019-02-14T01:22:13.475Z,2.65
2019-02-14T01:23:13.658Z,2.65
2019-02-14T01:24:13.820Z,2.57
2019-02-14T01:25:13.991Z,2.61
2019-02-14T01:26:14.160Z,2.57
2019-02-14T01:27:14.329Z,2.54
2019-02-14T01:28:14.500Z,2.57
2019-02-14T01:29:14.673Z,2.49
2019-02-14T01:30:14.838Z,2.61
2019-02-14T01:31:15.012Z,2.57
2019-02-14T01:32:15.185Z,2.65
2019-02-14T01:33:15.354Z,2.67
2019-02-14T01:34:15.523Z,2.62
2019-02-14T01:35:15.704Z,2.74
2019-02-14T01:36:15.864Z,2.68
2019-02-14T01:37:16.047Z,2.69
2019-02-14T01:38:16.200Z,2.67
2019-02-14T01:39:16.369Z,2.62
2019-02-14T01:40:16.552Z,2.53
2019-02-14T01:41:16.705Z,2.64
2019-02-14T01:42:16.885Z,2.65
2019-02-14T01:43:17.046Z,2.56
2019-02-14T01:44:17.217Z,2.49
2019-02-14T01:45:17.385Z,2.53
2019-02-14T01:46:17.555Z,2.62
2019-02-14T01:47:17.728Z,2.61
2019-02-14T01:48:17.900Z,2.56
2019-02-14T01:49:18.069Z,2.57
2019-02-14T01:50:18.248Z,2.54
2019-02-14T01:51:18.408Z,2.53
2019-02-14T01:52:18.579Z,2.53
2019-02-14T01:53:18.751Z,2.51
2019-02-14T01:54:18.920Z,2.49
2019-02-14T01:55:19.093Z,2.47
2019-02-14T01:56:19.261Z,2.50
2019-02-14T01:57:19.432Z,2.51
2019-02-14T01:58:19.603Z,2.42
2019-02-14T02:00:19.947Z,2.36
2019-02-14T02:01:20.112Z,2.60
2019-02-14T02:02:20.285Z,2.39
2019-02-14T02:03:20.456Z,2.43
2019-02-14T02:04:20.622Z,2.43
2019-02-14T02:05:20.799Z,2.39
2019-02-14T02:06:20.964Z,2.46
2019-02-14T02:07:21.141Z,2.38
2019-02-14T02:08:21.306Z,2.38
2019-02-14T02:09:21.476Z,2.43
2019-02-14T02:10:21.651Z,2.44
2019-02-14T02:11:21.815Z,2.49
2019-02-14T02:12:21.989Z,2.51
2019-02-14T02:13:22.159Z,2.49
2019-02-14T02:14:22.332Z,2.46
2019-02-14T02:15:22.495Z,2.56
2019-02-14T02:16:22.666Z,2.65
2019-02-14T02:17:22.834Z,2.62
2019-02-14T02:18:23.006Z,2.57
2019-02-14T02:19:23.177Z,2.65
2019-02-14T02:20:23.350Z,2.62
2019-02-14T02:21:23.517Z,2.57
2019-02-14T02:22:23.685Z,2.60
2019-02-14T02:23:23.851Z,2.56
2019-02-14T02:24:24.031Z,2.61
2019-02-14T02:25:24.195Z,2.51
2019-02-14T02:26:24.370Z,2.61
2019-02-14T02:27:24.532Z,2.53
2019-02-14T02:28:24.705Z,2.51
2019-02-14T02:29:24.871Z,2.57
2019-02-14T02:30:25.046Z,2.56
2019-02-14T02:31:25.205Z,2.61
2019-02-14T02:32:25.378Z,2.54
2019-02-14T02:33:25.572Z,2.54
2019-02-14T02:34:25.726Z,2.51
2019-02-14T02:35:25.915Z,2.61
2019-02-14T02:36:26.057Z,2.56
2019-02-14T02:37:26.223Z,2.56
2019-02-14T02:38:26.394Z,2.53
2019-02-14T02:39:26.583Z,2.53
2019-02-14T02:40:26.752Z,2.56
2019-02-14T02:41:26.928Z,2.54
2019-02-14T02:42:27.093Z,2.56
2019-02-14T02:43:27.265Z,2.36
2019-02-14T02:44:27.440Z,2.32
2019-02-14T02:45:27.615Z,2.29
2019-02-14T02:46:27.774Z,2.33
2019-02-14T02:47:27.950Z,2.32
2019-02-14T02:48:28.125Z,2.31
2019-02-14T02:49:29.471Z,2.26
2019-02-14T02:50:28.464Z,2.32
2019-02-14T02:51:28.629Z,2.15
2019-02-14T02:52:28.812Z,1.92
2019-02-14T02:53:28.982Z,1.92
2019-02-14T02:54:29.129Z,1.94
2019-02-14T02:55:29.303Z,2.00
2019-02-14T02:56:29.468Z,1.91
2019-02-14T02:57:29.638Z,2.04
2019-02-14T02:58:29.811Z,2.04
2019-02-14T02:59:29.991Z,2.18
2019-02-14T03:00:30.143Z,2.17
2019-02-14T03:01:30.313Z,2.17
2019-02-14T03:02:30.487Z,2.25
2019-02-14T03:03:30.654Z,2.29
2019-02-14T03:04:30.830Z,2.39
2019-02-14T03:05:31.004Z,2.33
2019-02-14T03:06:31.171Z,2.31
2019-02-14T03:07:31.356Z,2.33
2019-02-14T03:08:31.516Z,2.17
2019-02-14T03:09:31.688Z,2.24
2019-02-14T03:10:31.847Z,2.29
2019-02-14T03:11:32.036Z,2.15
2019-02-14T03:12:32.195Z,2.13
2019-02-14T03:13:32.366Z,2.13
2019-02-14T03:14:32.541Z,2.10
2019-02-14T03:15:32.707Z,2.24
2019-02-14T03:16:32.882Z,2.17
2019-02-14T03:17:33.044Z,2.14
2019-02-14T03:18:33.219Z,2.25
2019-02-14T03:19:33.388Z,2.17
2019-02-14T03:20:33.560Z,2.20
2019-02-14T03:21:33.728Z,2.18
2019-02-14T03:22:33.906Z,2.13
2019-02-14T03:23:34.065Z,2.15
2019-02-14T03:24:34.234Z,2.22
2019-02-14T03:25:35.701Z,2.25
2019-02-14T03:26:34.575Z,2.24
2019-02-14T03:27:34.742Z,2.24
2019-02-14T03:28:34.913Z,2.31
2019-02-14T03:29:35.089Z,2.44
2019-02-14T03:30:35.265Z,2.42
2019-02-14T03:31:35.424Z,2.38
2019-02-14T03:32:35.592Z,2.42
2019-02-14T03:33:35.761Z,2.31
2019-02-14T03:34:35.927Z,2.32
2019-02-14T03:35:36.095Z,2.18
2019-02-14T03:36:36.273Z,2.32
2019-02-14T03:37:36.448Z,2.29
2019-02-14T03:38:36.611Z,2.26
2019-02-14T03:39:36.773Z,2.33
2019-02-14T03:40:36.940Z,2.32
2019-02-14T03:41:37.111Z,2.24
2019-02-14T03:42:37.294Z,2.18
2019-02-14T03:43:37.449Z,2.22
2019-02-14T03:44:37.618Z,2.22
2019-02-14T03:45:37.806Z,2.29
2019-02-14T03:46:37.955Z,2.31
2019-02-14T03:47:38.128Z,2.25
2019-02-14T03:48:38.294Z,2.36
2019-02-14T03:49:38.457Z,2.39
2019-02-14T03:50:38.635Z,2.33
2019-02-14T03:51:40.633Z,2.35
2019-02-14T03:52:38.967Z,2.31
2019-02-14T03:53:39.135Z,2.39
2019-02-14T03:54:39.298Z,2.28
2019-02-14T03:55:39.475Z,2.29
2019-02-14T03:56:39.644Z,2.31
2019-02-14T03:57:39.814Z,2.33
2019-02-14T03:58:39.991Z,2.32
2019-02-14T03:59:40.162Z,2.22
2019-02-14T04:00:40.323Z,2.18
2019-02-14T04:01:40.491Z,2.22
2019-02-14T04:02:40.661Z,2.24
2019-02-14T04:03:40.837Z,2.18
2019-02-14T04:04:41.007Z,2.17
2019-02-14T04:05:41.179Z,2.15
2019-02-14T04:06:41.343Z,2.17
2019-02-14T04:07:41.511Z,2.20
2019-02-14T04:08:41.685Z,2.20
2019-02-14T04:09:41.854Z,2.15
2019-02-14T04:10:42.023Z,2.20
2019-02-14T04:11:42.191Z,2.17
2019-02-14T04:12:42.363Z,2.17
2019-02-14T04:13:42.527Z,2.17
2019-02-14T04:14:42.697Z,2.18
2019-02-14T04:15:42.876Z,2.14
2019-02-14T04:16:43.038Z,2.11
2019-02-14T04:17:43.215Z,2.20
2019-02-14T04:18:43.379Z,2.15
2019-02-14T04:19:43.549Z,2.25
2019-02-14T04:20:43.719Z,2.17
2019-02-14T04:21:43.888Z,2.26
2019-02-14T04:22:44.060Z,2.22
2019-02-14T04:23:44.229Z,2.22
2019-02-14T04:24:44.400Z,2.08
2019-02-14T04:25:44.567Z,2.20
2019-02-14T04:26:44.750Z,2.26
2019-02-14T04:27:44.909Z,2.33
2019-02-14T04:28:45.078Z,2.28
2019-02-14T04:29:45.247Z,2.42
2019-02-14T04:30:45.416Z,2.44
2019-02-14T04:31:45.591Z,2.32
2019-02-14T04:32:45.759Z,2.32
2019-02-14T04:33:45.931Z,2.25
2019-02-14T04:34:46.113Z,2.29
2019-02-14T04:35:46.270Z,2.25
2019-02-14T04:36:46.438Z,2.28
2019-02-14T04:37:46.606Z,2.36
2019-02-14T04:38:46.773Z,2.36
2019-02-14T04:39:46.951Z,2.39
2019-02-14T04:40:47.101Z,2.28
2019-02-14T04:41:47.268Z,2.38
2019-02-14T04:42:47.433Z,2.42
2019-02-14T04:43:47.595Z,2.38
2019-02-14T04:44:47.771Z,2.53
2019-02-14T04:45:47.949Z,2.51
2019-02-14T04:46:48.110Z,2.42
2019-02-14T04:47:48.308Z,2.43
2019-02-14T04:48:48.477Z,2.42
2019-02-14T04:49:48.637Z,2.32
2019-02-14T04:50:48.806Z,2.36
2019-02-14T04:51:48.974Z,2.31
2019-02-14T04:52:49.135Z,2.29
2019-02-14T04:53:49.319Z,2.33
2019-02-14T04:54:49.490Z,2.38
2019-02-14T04:55:49.656Z,2.38
2019-02-14T04:56:49.829Z,2.36
2019-02-14T04:57:50.008Z,2.43
2019-02-14T04:58:50.163Z,2.35
2019-02-14T04:59:50.340Z,2.38
2019-02-14T05:00:50.511Z,2.36
2019-02-14T05:01:50.672Z,2.42
2019-02-14T05:02:50.841Z,2.35
2019-02-14T05:03:51.012Z,2.39
2019-02-14T05:04:51.179Z,2.39
2019-02-14T05:05:51.362Z,2.36
2019-02-14T05:06:51.523Z,2.31
2019-02-14T05:07:51.684Z,2.28
2019-02-14T05:08:51.856Z,2.20
2019-02-14T05:09:52.023Z,2.32
2019-02-14T05:10:52.194Z,2.35
2019-02-14T05:11:52.363Z,2.20
2019-02-14T05:12:52.532Z,2.20
2019-02-14T05:13:52.706Z,2.17
2019-02-14T05:14:52.875Z,2.17
2019-02-14T05:15:53.043Z,2.18
2019-02-14T05:16:53.217Z,2.22
2019-02-14T05:17:53.396Z,2.11
2019-02-14T05:18:53.541Z,2.10
2019-02-14T05:19:53.707Z,2.17
2019-02-14T05:20:53.881Z,2.10
2019-02-14T05:21:54.061Z,2.13
2019-02-14T05:22:54.217Z,2.15
2019-02-14T05:23:54.389Z,2.18
2019-02-14T05:24:54.560Z,2.17
2019-02-14T05:25:54.727Z,2.08
2019-02-14T05:26:54.899Z,2.06
2019-02-14T05:27:55.069Z,1.99
2019-02-14T05:28:55.225Z,2.08
2019-02-14T05:29:55.409Z,2.15
2019-02-14T05:30:55.576Z,2.17
2019-02-14T05:31:55.752Z,2.18
2019-02-14T05:32:55.913Z,2.10
2019-02-14T05:33:56.093Z,2.13
2019-02-14T05:35:56.414Z,2.07
2019-02-14T05:36:56.715Z,2.00
2019-02-14T05:37:56.746Z,1.99
2019-02-14T05:38:56.917Z,1.92
2019-02-14T05:39:57.085Z,1.94
2019-02-14T05:40:57.259Z,2.10
2019-02-14T05:41:57.433Z,2.15
2019-02-14T05:42:57.595Z,2.13
2019-02-14T05:43:57.766Z,2.13
2019-02-14T05:44:57.938Z,2.15
2019-02-14T05:45:58.099Z,2.15
2019-02-14T05:46:58.287Z,2.13
2019-02-14T05:47:58.448Z,2.22
2019-02-14T05:48:58.620Z,2.22
2019-02-14T05:49:58.780Z,2.20
2019-02-14T05:50:58.950Z,2.14
2019-02-14T05:51:59.120Z,2.22
2019-02-14T05:52:59.330Z,2.18
2019-02-14T05:53:59.459Z,2.26
2019-02-14T05:54:59.635Z,2.31
2019-02-14T05:55:59.822Z,2.31
2019-02-14T05:56:59.968Z,2.25
2019-02-14T05:58:00.139Z,2.24
2019-02-14T05:59:00.317Z,2.18
2019-02-14T06:00:00.480Z,2.25
2019-02-14T06:01:00.648Z,2.25
2019-02-14T06:02:00.820Z,2.17
2019-02-14T06:03:00.990Z,2.15
2019-02-14T06:04:01.163Z,1.92
2019-02-14T06:05:01.333Z,2.08
2019-02-14T06:06:01.503Z,2.10
2019-02-14T06:07:01.675Z,2.13
2019-02-14T06:08:01.853Z,2.15
2019-02-14T06:09:02.014Z,2.24
2019-02-14T06:10:02.185Z,2.14
2019-02-14T06:11:02.353Z,2.15
2019-02-14T06:12:02.509Z,2.24
2019-02-14T06:13:02.689Z,2.35
2019-02-14T06:14:02.853Z,2.25
2019-02-14T06:15:03.028Z,2.32
2019-02-14T06:16:03.190Z,2.28
2019-02-14T06:17:03.354Z,2.36
2019-02-14T06:18:03.524Z,2.36
2019-02-14T06:19:03.697Z,2.29
2019-02-14T06:20:03.874Z,2.17
2019-02-14T06:21:04.038Z,2.24
2019-02-14T06:22:04.223Z,2.35
2019-02-14T06:23:04.371Z,2.32
2019-02-14T06:24:04.525Z,2.31
2019-02-14T06:25:04.700Z,2.26
2019-02-14T06:26:04.863Z,2.43
2019-02-14T06:27:05.034Z,2.28
2019-02-14T06:28:05.203Z,2.29
2019-02-14T06:29:05.377Z,2.18
2019-02-14T06:30:05.549Z,2.17
2019-02-14T06:31:05.714Z,2.22
2019-02-14T06:32:05.886Z,1.99
2019-02-14T06:33:06.063Z,1.84
2019-02-14T06:34:06.222Z,1.85
2019-02-14T06:35:06.393Z,1.94
2019-02-14T06:36:06.560Z,2.06
2019-02-14T06:37:09.738Z,2.15
2019-02-14T06:38:06.908Z,2.18
2019-02-14T06:39:07.080Z,2.11
2019-02-14T06:40:07.237Z,2.14
2019-02-14T06:41:07.409Z,2.04
2019-02-14T06:42:07.574Z,1.95
2019-02-14T06:43:07.744Z,1.95
2019-02-14T06:44:07.915Z,1.91
2019-02-14T06:45:08.095Z,2.02
2019-02-14T06:46:08.235Z,2.11
2019-02-14T06:47:08.416Z,2.08
2019-02-14T06:48:08.585Z,2.17
2019-02-14T06:49:08.757Z,2.14
2019-02-14T06:50:08.921Z,2.07
2019-02-14T06:51:09.107Z,2.18
2019-02-14T06:52:09.294Z,2.10
2019-02-14T06:53:09.469Z,2.13
2019-02-14T06:54:09.637Z,2.08
2019-02-14T06:55:09.806Z,2.10
2019-02-14T06:56:09.984Z,2.06
2019-02-14T06:57:10.149Z,2.04
2019-02-14T06:58:12.742Z,1.94
2019-02-14T06:59:10.477Z,1.87
2019-02-14T07:00:10.652Z,1.78
2019-02-14T07:01:10.821Z,1.84
2019-02-14T07:02:10.994Z,1.73
2019-02-14T07:03:11.185Z,1.78
2019-02-14T07:04:11.356Z,1.67
2019-02-14T07:05:11.531Z,1.67
2019-02-14T07:06:11.693Z,1.73
2019-02-14T07:07:18.293Z,1.77
2019-02-14T07:08:12.032Z,1.76
2019-02-14T07:09:12.208Z,1.87
2019-02-14T07:10:12.376Z,1.74
2019-02-14T07:11:12.545Z,1.77
2019-02-14T07:12:12.707Z,1.78
2019-02-14T07:13:12.881Z,1.81
2019-02-14T07:14:13.051Z,1.80
2019-02-14T07:15:13.219Z,1.81
2019-02-14T07:16:13.391Z,1.85
2019-02-14T07:17:13.557Z,1.84
2019-02-14T07:18:13.729Z,1.94
2019-02-14T07:19:13.907Z,1.99
2019-02-14T07:20:14.067Z,1.94
2019-02-14T07:21:14.242Z,1.87
2019-02-14T07:22:14.408Z,1.78
2019-02-14T07:23:14.582Z,1.85
2019-02-14T07:24:14.743Z,1.91
2019-02-14T07:25:14.910Z,1.85
2019-02-14T07:26:15.078Z,1.91
2019-02-14T07:27:15.245Z,1.99
2019-02-14T07:28:15.420Z,1.97
2019-02-14T07:29:15.586Z,2.08
2019-02-14T07:30:15.761Z,2.18
2019-02-14T07:31:15.935Z,2.29
2019-02-14T07:32:16.107Z,2.38
2019-02-14T07:33:16.268Z,2.33
2019-02-14T07:34:16.439Z,2.39
2019-02-14T07:35:16.614Z,2.44
2019-02-14T07:36:16.787Z,2.54
2019-02-14T07:37:16.955Z,2.53
2019-02-14T07:38:17.121Z,2.60
2019-02-14T07:39:17.287Z,2.60
2019-02-14T07:40:17.458Z,2.60
2019-02-14T07:41:17.629Z,2.54
2019-02-14T07:42:17.798Z,2.60
2019-02-14T07:43:17.976Z,2.68
2019-02-14T07:44:18.137Z,2.69
2019-02-14T07:45:18.306Z,2.62
2019-02-14T07:46:22.649Z,2.31
2019-02-14T07:47:18.651Z,2.33
2019-02-14T07:48:18.815Z,2.20
2019-02-14T07:49:19.040Z,2.25
2019-02-14T07:50:19.144Z,2.31
2019-02-14T07:51:19.310Z,2.43
2019-02-14T07:52:25.004Z,2.53
2019-02-14T07:53:19.662Z,2.61
2019-02-14T07:54:19.816Z,2.61
2019-02-14T07:55:20.008Z,2.69
2019-02-14T07:56:20.165Z,2.90
2019-02-14T07:57:20.329Z,2.86
2019-02-14T07:58:20.509Z,2.90
2019-02-14T07:59:20.671Z,2.92
2019-02-14T08:00:20.842Z,3.01
2019-02-14T08:01:21.019Z,3.13
2019-02-14T08:02:21.184Z,3.21
2019-02-14T08:03:21.357Z,3.22
2019-02-14T08:04:21.525Z,3.07
2019-02-14T08:05:21.713Z,2.97
2019-02-14T08:06:21.911Z,2.89
2019-02-14T08:07:22.033Z,2.95
2019-02-14T08:08:22.200Z,3.04
2019-02-14T08:09:22.365Z,3.32
2019-02-14T08:10:22.550Z,3.26
2019-02-14T08:11:22.716Z,3.53
2019-02-14T08:12:22.889Z,3.62
2019-02-14T08:13:23.052Z,3.99
2019-02-14T08:14:23.224Z,4.02
2019-02-14T08:15:23.396Z,4.10
2019-02-14T08:16:23.566Z,4.55
2019-02-14T08:17:23.754Z,4.48
2019-02-14T08:18:23.921Z,4.71
2019-02-14T08:19:24.092Z,4.67
2019-02-14T08:20:24.261Z,4.42
2019-02-14T08:21:24.433Z,4.19
2019-02-14T08:22:24.609Z,4.22
2019-02-14T08:23:24.782Z,4.01
2019-02-14T08:24:24.954Z,4.02
2019-02-14T08:25:25.124Z,4.01
2019-02-14T08:26:25.295Z,3.80
2019-02-14T08:27:25.466Z,3.68
2019-02-14T08:28:25.639Z,3.76
2019-02-14T08:29:25.811Z,3.65
2019-02-14T08:30:25.984Z,3.50
2019-02-14T08:31:26.154Z,3.62
2019-02-14T08:32:26.326Z,3.66
2019-02-14T08:33:26.499Z,3.58
2019-02-14T08:34:26.666Z,3.41
2019-02-14T08:35:26.835Z,3.58
2019-02-14T08:36:27.007Z,3.59
2019-02-14T08:37:27.454Z,3.76
2019-02-14T08:38:28.434Z,3.94
2019-02-14T08:39:27.610Z,4.08
2019-02-14T08:40:27.798Z,4.06
2019-02-14T08:41:28.194Z,4.22
2019-02-14T08:42:28.166Z,4.06
2019-02-14T08:43:28.442Z,4.24
2019-02-14T08:44:28.681Z,4.14
2019-02-14T08:45:28.733Z,4.12
2019-02-14T08:46:28.986Z,4.31
2019-02-14T08:47:29.578Z,4.40
2019-02-14T08:48:29.277Z,4.40
2019-02-14T08:49:29.879Z,4.34
2019-02-14T08:50:30.324Z,4.49
2019-02-14T08:51:30.072Z,4.23
2019-02-14T08:52:30.306Z,4.23
2019-02-14T08:53:30.514Z,4.40
2019-02-14T08:54:30.450Z,4.06
2019-02-14T08:55:30.875Z,4.19
2019-02-14T08:56:30.850Z,4.06
2019-02-14T08:57:31.187Z,4.04
2019-02-14T08:58:31.219Z,3.94
2019-02-14T08:59:31.370Z,4.04
2019-02-14T09:00:31.560Z,4.14
2019-02-14T09:01:31.761Z,4.34
2019-02-14T09:02:32.284Z,4.14
2019-02-14T09:03:32.016Z,4.45
2019-02-14T09:04:32.223Z,4.50
2019-02-14T09:05:32.350Z,4.73
2019-02-14T09:06:32.510Z,4.96
2019-02-14T09:07:32.678Z,5.44
2019-02-14T09:08:32.859Z,5.72
2019-02-14T09:09:33.023Z,5.48
2019-02-14T09:10:33.193Z,5.59
2019-02-14T09:11:33.510Z,5.33
2019-02-14T09:12:35.522Z,5.57
2019-02-14T09:13:33.734Z,5.46
2019-02-14T09:14:33.942Z,5.68
2019-02-14T09:15:34.240Z,5.84
2019-02-14T09:16:34.314Z,5.75
2019-02-14T09:17:34.592Z,5.43
2019-02-14T09:18:35.164Z,5.44
2019-02-14T09:19:34.973Z,5.26
2019-02-14T09:20:35.180Z,5.18
2019-02-14T09:21:35.458Z,5.12
2019-02-14T09:22:35.531Z,4.96
2019-02-14T09:23:35.669Z,5.04
2019-02-14T09:24:35.918Z,5.08
2019-02-14T09:25:36.135Z,5.12
2019-02-14T09:26:36.160Z,5.29
2019-02-14T09:27:36.623Z,5.23
2019-02-14T09:28:36.653Z,5.28
2019-02-14T09:29:36.971Z,5.02
2019-02-14T09:30:37.269Z,5.07
2019-02-14T09:31:37.627Z,4.58
2019-02-14T09:32:37.533Z,4.42
2019-02-14T09:33:37.736Z,4.10
2019-02-14T09:34:37.876Z,3.70
2019-02-14T09:35:38.210Z,3.70
2019-02-14T09:36:38.028Z,3.77
2019-02-14T09:37:38.181Z,3.92
2019-02-14T09:38:38.616Z,3.96
2019-02-14T09:39:40.915Z,4.02
2019-02-14T09:40:38.975Z,4.10
2019-02-14T09:41:39.299Z,4.23
2019-02-14T09:42:39.191Z,4.45
2019-02-14T09:43:39.514Z,4.58
2019-02-14T09:44:39.741Z,4.67
2019-02-14T09:45:39.634Z,4.90
2019-02-14T09:46:40.346Z,5.38
2019-02-14T09:47:40.142Z,5.57
2019-02-14T09:48:40.146Z,5.43
2019-02-14T09:49:40.427Z,5.69
2019-02-14T09:50:40.488Z,5.87
2019-02-14T09:51:40.616Z,5.97
2019-02-14T09:52:41.285Z,5.97
2019-02-14T09:53:41.656Z,5.93
2019-02-14T09:54:41.299Z,6.05
2019-02-14T09:55:41.408Z,5.76
2019-02-14T09:56:41.789Z,5.79
2019-02-14T09:57:41.793Z,5.86
2019-02-14T09:58:42.143Z,6.08
2019-02-14T09:59:41.840Z,6.05
2019-02-14T10:00:42.004Z,5.93
2019-02-14T10:01:42.192Z,5.62
2019-02-14T10:02:42.568Z,5.41
2019-02-14T10:03:42.876Z,5.53
2019-02-14T10:04:43.079Z,5.56
2019-02-14T10:05:43.803Z,5.59
2019-02-14T10:06:43.365Z,5.59
2019-02-14T10:07:43.514Z,5.57
2019-02-14T10:08:43.658Z,5.50
2019-02-14T10:09:43.951Z,5.48
2019-02-14T10:10:44.053Z,5.36
2019-02-14T10:11:44.054Z,5.59
2019-02-14T10:12:44.270Z,5.73
2019-02-14T10:13:44.540Z,5.75
2019-02-14T10:14:45.049Z,5.97
2019-02-14T10:15:44.562Z,6.07
2019-02-14T10:16:44.794Z,6.20
2019-02-14T10:17:44.904Z,6.54
2019-02-14T10:18:45.068Z,6.56
2019-02-14T10:19:45.245Z,6.46
2019-02-14T10:20:45.409Z,6.59
2019-02-14T10:21:45.581Z,6.60
2019-02-14T10:22:45.755Z,6.82
2019-02-14T10:23:46.042Z,7.06
2019-02-14T10:24:46.204Z,7.10
2019-02-14T10:25:46.302Z,7.05
2019-02-14T10:26:46.672Z,6.93
2019-02-14T10:27:47.061Z,7.03
2019-02-14T10:28:46.957Z,7.57
2019-02-14T10:29:47.051Z,7.70
2019-02-14T10:30:47.000Z,7.42
2019-02-14T10:31:47.387Z,7.90
2019-02-14T10:32:47.399Z,7.70
2019-02-14T10:33:47.534Z,8.00
2019-02-14T10:34:47.764Z,7.94
2019-02-14T10:35:47.911Z,7.83
2019-02-14T10:36:48.031Z,8.08
2019-02-14T10:37:48.297Z,8.09
2019-02-14T10:38:48.381Z,7.88
2019-02-14T10:39:48.651Z,7.76
2019-02-14T10:40:48.932Z,7.88
2019-02-14T10:41:48.955Z,7.80
2019-02-14T10:42:49.179Z,7.77
2019-02-14T10:43:49.415Z,7.36
2019-02-14T10:44:49.622Z,7.36
2019-02-14T10:45:49.780Z,7.24
2019-02-14T10:46:50.109Z,7.35
2019-02-14T10:47:50.143Z,7.47
2019-02-14T10:48:50.221Z,7.45
2019-02-14T10:49:50.394Z,7.53
2019-02-14T10:50:51.197Z,7.45
2019-02-14T10:51:50.789Z,7.18
2019-02-14T10:52:50.869Z,7.06
2019-02-14T10:53:51.094Z,7.29
2019-02-14T10:54:51.228Z,7.29
2019-02-14T10:55:51.479Z,7.40
2019-02-14T10:56:51.780Z,7.53
2019-02-14T10:57:51.903Z,7.60
2019-02-14T10:58:52.000Z,7.63
2019-02-14T10:59:53.189Z,7.40
2019-02-14T11:00:52.644Z,7.50
2019-02-14T11:01:53.832Z,7.31
2019-02-14T11:02:53.106Z,7.33
2019-02-14T11:03:53.094Z,7.32
2019-02-14T11:04:53.144Z,7.15
2019-02-14T11:05:53.464Z,7.25
2019-02-14T11:06:54.352Z,7.29
2019-02-14T11:07:53.797Z,7.43
2019-02-14T11:08:53.926Z,7.42
2019-02-14T11:09:54.324Z,7.48
2019-02-14T11:10:54.257Z,7.66
2019-02-14T11:11:54.374Z,7.57
2019-02-14T11:12:54.610Z,7.73
2019-02-14T11:13:54.674Z,7.91
2019-02-14T11:14:54.909Z,7.94
2019-02-14T11:15:55.197Z,8.01
2019-02-14T11:16:55.303Z,7.90
2019-02-14T11:17:55.698Z,8.05
2019-02-14T11:18:55.722Z,8.09
2019-02-14T11:19:55.805Z,8.26
2019-02-14T11:20:56.162Z,8.30
2019-02-14T11:21:56.146Z,8.31
2019-02-14T11:22:56.429Z,8.48
2019-02-14T11:23:56.764Z,8.74
2019-02-14T11:24:56.786Z,9.31
2019-02-14T11:25:56.823Z,9.82
2019-02-14T11:26:57.316Z,9.69
2019-02-14T11:27:57.374Z,10.31
2019-02-14T11:28:57.902Z,10.82
2019-02-14T11:29:57.671Z,11.35
2019-02-14T11:30:59.847Z,11.26
2019-02-14T11:31:59.396Z,10.57
2019-02-14T11:32:59.431Z,10.78
2019-02-14T11:33:58.590Z,11.18
2019-02-14T11:34:59.021Z,11.26
2019-02-14T11:35:59.458Z,11.27
2019-02-14T11:36:59.858Z,11.33
2019-02-14T11:37:59.289Z,11.37
2019-02-14T11:38:59.352Z,11.86
2019-02-14T11:39:59.513Z,12.15
2019-02-14T11:41:00.081Z,12.27
2019-02-14T11:42:00.102Z,12.27
2019-02-14T11:43:00.344Z,13.03
2019-02-14T11:44:02.753Z,13.86
2019-02-14T11:45:00.446Z,14.45
2019-02-14T11:46:00.733Z,14.91
2019-02-14T11:47:01.063Z,14.91
2019-02-14T11:48:01.427Z,14.51
2019-02-14T11:49:01.129Z,14.72
2019-02-14T11:50:01.388Z,14.86
2019-02-14T11:51:01.535Z,15.00
2019-02-14T11:52:02.100Z,15.33
2019-02-14T11:53:01.930Z,15.19
2019-02-14T11:54:02.073Z,15.59
2019-02-14T11:55:02.248Z,16.09
2019-02-14T11:56:02.578Z,16.15
2019-02-14T11:57:02.656Z,15.92
2019-02-14T11:58:02.775Z,16.26
2019-02-14T11:59:03.012Z,16.64
2019-02-14T12:00:03.726Z,16.81
2019-02-14T12:01:03.454Z,16.61
2019-02-14T12:02:04.387Z,16.71
2019-02-14T12:03:03.951Z,16.60
2019-02-14T12:04:04.063Z,16.16
2019-02-14T12:05:04.613Z,16.38
2019-02-14T12:06:04.566Z,16.69
2019-02-14T12:07:04.701Z,16.94
2019-02-14T12:08:05.018Z,17.22
2019-02-14T12:09:05.122Z,16.54
2019-02-14T12:10:13.197Z,16.38
2019-02-14T12:11:05.620Z,16.08
2019-02-14T12:12:05.727Z,15.47
2019-02-14T12:13:05.830Z,14.63
2019-02-14T12:14:06.018Z,14.23
2019-02-14T12:15:06.172Z,14.29
2019-02-14T12:16:06.461Z,14.47
2019-02-14T12:17:06.568Z,14.68
2019-02-14T12:18:06.603Z,15.04
2019-02-14T12:19:06.845Z,14.72
2019-02-14T12:20:12.468Z,14.29
2019-02-14T12:21:07.237Z,14.28
2019-02-14T12:22:07.330Z,14.36
2019-02-14T12:23:07.585Z,14.48
2019-02-14T12:24:07.783Z,14.85
2019-02-14T12:25:08.513Z,14.88
2019-02-14T12:26:08.172Z,14.65
2019-02-14T12:27:08.357Z,14.17
2019-02-14T12:28:08.619Z,13.89
2019-02-14T12:29:08.670Z,14.03
2019-02-14T12:30:08.942Z,14.12
2019-02-14T12:31:09.077Z,14.04
2019-02-14T12:32:09.066Z,13.90
2019-02-14T12:33:09.247Z,13.50
2019-02-14T12:34:09.818Z,13.72
2019-02-14T12:35:09.784Z,13.65
2019-02-14T12:36:09.911Z,13.63
2019-02-14T12:37:10.001Z,13.19
2019-02-14T12:38:10.192Z,12.68
2019-02-14T12:39:11.678Z,12.57
2019-02-14T12:40:10.679Z,12.46
2019-02-14T12:41:10.775Z,12.39
2019-02-14T12:42:11.155Z,12.46
2019-02-14T12:43:11.374Z,12.53
2019-02-14T12:44:11.448Z,12.60
2019-02-14T12:45:20.086Z,12.60
2019-02-14T12:46:11.857Z,12.54
2019-02-14T12:47:12.123Z,12.25
2019-02-14T12:48:12.258Z,12.13
2019-02-14T12:49:12.420Z,12.18
2019-02-14T12:50:12.659Z,12.09
2019-02-14T12:51:12.829Z,11.88
2019-02-14T12:52:13.186Z,11.94
2019-02-14T12:53:13.221Z,11.90
2019-02-14T12:54:13.324Z,11.90
2019-02-14T12:55:13.493Z,11.88
2019-02-14T12:56:13.651Z,11.72
2019-02-14T12:57:13.836Z,11.80
2019-02-14T12:58:14.013Z,11.66
2019-02-14T12:59:14.195Z,11.68
2019-02-14T13:00:14.363Z,11.66
2019-02-14T13:01:14.533Z,11.40
2019-02-14T13:02:14.710Z,11.36
2019-02-14T13:03:14.890Z,11.33
2019-02-14T13:04:15.365Z,11.36
2019-02-14T13:05:15.382Z,11.47
2019-02-14T13:06:15.475Z,11.55
2019-02-14T13:07:15.669Z,11.70
2019-02-14T13:08:15.829Z,12.00
2019-02-14T13:09:19.916Z,12.10
2019-02-14T13:10:16.204Z,11.99
2019-02-14T13:11:16.370Z,12.09
2019-02-14T13:12:16.529Z,11.90
2019-02-14T13:13:16.715Z,12.04
2019-02-14T13:14:16.893Z,12.10
2019-02-14T13:15:17.080Z,12.04
2019-02-14T13:16:17.256Z,11.99
2019-02-14T13:17:17.427Z,11.95
2019-02-14T13:18:17.598Z,12.12
2019-02-14T13:19:17.774Z,12.12